createdAt,value
2022-09-09T00:02:22.442Z,100668.81
2022-09-09T00:05:28.349Z,100664.22
2022-09-09T00:07:59.349Z,100662.34
2022-09-09T00:10:42.729Z,100658.09
2022-09-09T00:13:47.189Z,100654.69
2022-09-09T00:16:23.346Z,100656.72
2022-09-09T00:19:02.900Z,100655.34
2022-09-09T00:21:44.568Z,100654.16
2022-09-09T00:24:26.645Z,100644.28
2022-09-09T00:27:07.366Z,100643.09
2022-09-09T00:29:47.621Z,100643.94
2022-09-09T00:32:18.236Z,100644.25
2022-09-09T00:35:27.437Z,100641.88
2022-09-09T00:38:02.541Z,100643.06
2022-09-09T00:40:36.095Z,100649.88
2022-09-09T00:43:33.310Z,100642.03
2022-09-09T00:46:19.249Z,100638.31
2022-09-09T00:48:48.798Z,100647.16
2022-09-09T00:51:43.511Z,100642.03
2022-09-09T00:54:17.223Z,100639.31
2022-09-09T00:57:18.328Z,100638.66
2022-09-09T00:59:51.558Z,100634.91
2022-09-09T01:02:29.025Z,100630.13
2022-09-09T01:05:01.551Z,100633.72
2022-09-09T01:07:28.498Z,100630.66
2022-09-09T01:10:00.454Z,100628.25
2022-09-09T01:12:44.591Z,100628.44
2022-09-09T01:15:23.334Z,100623.16
2022-09-09T01:18:02.235Z,100626.38
2022-09-09T01:20:48.821Z,100628.44
2022-09-09T01:23:43.395Z,100622.81
2022-09-09T01:26:18.611Z,100619.75
2022-09-09T01:28:49.837Z,100619.22
2022-09-09T01:31:24.389Z,100621.94
2022-09-09T01:33:53.567Z,100634.53
2022-09-09T01:36:42.278Z,100623.47
2022-09-09T01:39:08.885Z,100625.69
2022-09-09T01:41:36.516Z,100627.22
2022-09-09T01:44:08.398Z,100627.91
2022-09-09T01:46:36.883Z,100620.44
2022-09-09T01:49:08.362Z,100622.13
2022-09-09T01:51:37.110Z,100619.91
2022-09-09T01:54:11.699Z,100618.56
2022-09-09T01:57:15.920Z,100622.63
2022-09-09T02:00:07.270Z,100614.63
2022-09-09T02:03:04.920Z,100610.38
2022-09-09T02:06:09.486Z,100610.03
2022-09-09T02:08:46.353Z,100609.69
2022-09-09T02:11:16.032Z,100607.66
2022-09-09T02:13:53.848Z,100612.25
2022-09-09T02:16:28.756Z,100601.19
2022-09-09T02:19:01.937Z,100600.19
2022-09-09T02:21:44.967Z,100598.47
2022-09-09T02:24:15.303Z,100595.25
2022-09-09T02:26:53.263Z,100600.16
2022-09-09T02:29:36.826Z,100594.22
2022-09-09T02:32:09.038Z,100597.78
2022-09-09T02:34:44.306Z,100600.50
2022-09-09T02:37:12.943Z,100590.97
2022-09-09T02:39:42.733Z,100584.00
2022-09-09T02:42:15.806Z,100586.84
2022-09-09T02:44:45.097Z,100592.28
2022-09-09T02:47:29.171Z,100592.47
2022-09-09T02:50:10.292Z,100599.59
2022-09-09T02:53:42.192Z,100603.88
2022-09-09T02:56:18.434Z,100603.91
2022-09-09T02:58:47.477Z,100600.84
2022-09-09T03:01:15.422Z,100595.41
2022-09-09T03:03:47.468Z,100600.69
2022-09-09T03:06:16.619Z,100603.56
2022-09-09T03:08:49.363Z,100596.75
2022-09-09T03:11:18.481Z,100605.78
2022-09-09T03:13:50.278Z,100610.03
2022-09-09T03:16:17.865Z,100601.03
2022-09-09T03:18:48.124Z,100596.75
2022-09-09T03:21:15.283Z,100598.97
2022-09-09T03:23:43.361Z,100610.00
2022-09-09T03:26:10.356Z,100601.53
2022-09-09T03:28:43.533Z,100600.66
2022-09-09T03:31:11.548Z,100605.25
2022-09-09T03:33:43.732Z,100605.25
2022-09-09T03:36:13.455Z,100599.66
2022-09-09T03:38:40.358Z,100606.63
2022-09-09T03:41:08.831Z,100610.19
2022-09-09T03:43:38.767Z,100606.78
2022-09-09T03:46:05.606Z,100613.78
2022-09-09T03:48:32.189Z,100611.72
2022-09-09T03:51:02.085Z,100616.66
2022-09-09T03:53:32.804Z,100614.63
2022-09-09T03:56:00.775Z,100606.31
2022-09-09T03:58:29.306Z,100606.81
2022-09-09T04:01:09.530Z,100603.06
2022-09-09T04:03:38.483Z,100604.59
2022-09-09T04:06:07.869Z,100600.19
2022-09-09T04:08:36.646Z,100609.03
2022-09-09T04:11:07.230Z,100607.16
2022-09-09T04:13:40.023Z,100608.88
2022-09-09T04:16:10.335Z,100602.91
2022-09-09T04:18:38.072Z,100599.84
2022-09-09T04:21:06.275Z,100595.09
2022-09-09T04:23:37.681Z,100597.81
2022-09-09T04:26:05.774Z,100589.31
2022-09-09T04:28:37.245Z,100587.44
2022-09-09T04:31:15.318Z,100587.28
2022-09-09T04:33:45.223Z,100586.75
2022-09-09T04:36:11.745Z,100574.34
2022-09-09T04:38:38.430Z,100581.47
2022-09-09T04:41:05.938Z,100575.19
2022-09-09T04:43:38.301Z,100582.16
2022-09-09T04:46:07.326Z,100582.00
2022-09-09T04:48:34.548Z,100578.06
2022-09-09T04:51:07.472Z,100578.56
2022-09-09T04:53:36.686Z,100576.72
2022-09-09T04:56:14.557Z,100576.03
2022-09-09T04:58:46.370Z,100576.38
2022-09-09T05:01:18.528Z,100570.06
2022-09-09T05:03:46.889Z,100567.53
2022-09-09T05:06:19.003Z,100571.94
2022-09-09T05:08:49.149Z,100567.34
2022-09-09T05:11:20.608Z,100576.88
2022-09-09T05:13:50.951Z,100573.97
2022-09-09T05:16:19.399Z,100579.25
2022-09-09T05:18:47.106Z,100574.50
2022-09-09T05:21:16.203Z,100577.75
2022-09-09T05:23:45.865Z,100577.75
2022-09-09T05:26:18.683Z,100569.41
2022-09-09T05:28:48.612Z,100565.50
2022-09-09T05:31:17.932Z,100568.38
2022-09-09T05:33:50.978Z,100565.50
2022-09-09T05:36:20.093Z,100568.38
2022-09-09T05:38:50.199Z,100568.56
2022-09-09T05:41:18.052Z,100567.53
2022-09-09T05:43:49.721Z,100567.72
2022-09-09T05:46:26.235Z,100565.84
2022-09-09T05:48:55.034Z,100567.53
2022-09-09T05:51:32.869Z,100569.25
2022-09-09T05:54:05.529Z,100570.09
2022-09-09T05:56:35.540Z,100566.34
2022-09-09T05:59:03.091Z,100570.75
2022-09-09T06:01:32.786Z,100569.56
2022-09-09T06:04:04.809Z,100580.28
2022-09-09T06:06:37.726Z,100570.41
2022-09-09T06:09:11.138Z,100574.66
2022-09-09T06:11:40.159Z,100583.88
2022-09-09T06:14:09.315Z,100584.53
2022-09-09T06:16:38.741Z,100584.53
2022-09-09T06:19:10.826Z,100588.78
2022-09-09T06:21:38.326Z,100582.84
2022-09-09T06:24:09.335Z,100581.47
2022-09-09T06:26:41.906Z,100591.34
2022-09-09T06:29:10.811Z,100582.00
2022-09-09T06:31:38.533Z,100585.56
2022-09-09T06:34:29.446Z,100587.09
2022-09-09T06:36:59.305Z,100576.69
2022-09-09T06:39:30.187Z,100583.66
2022-09-09T06:41:58.676Z,100574.13
2022-09-09T06:44:57.142Z,100581.41
2022-09-09T06:47:49.663Z,100580.88
2022-09-09T06:50:17.578Z,100581.22
2022-09-09T06:52:48.571Z,100578.28
2022-09-09T06:55:16.902Z,100583.72
2022-09-09T06:57:44.245Z,100583.03
2022-09-09T07:00:19.200Z,100577.03
2022-09-09T07:02:45.746Z,100577.53
2022-09-09T07:05:13.314Z,100580.38
2022-09-09T07:07:42.025Z,100574.88
2022-09-09T07:10:10.279Z,100573.84
2022-09-09T07:12:38.508Z,100582.16
2022-09-09T07:15:07.226Z,100570.88
2022-09-09T07:17:33.811Z,100573.25
2022-09-09T07:20:13.150Z,100579.50
2022-09-09T07:22:40.337Z,100568.34
2022-09-09T07:25:09.311Z,100574.75
2022-09-09T07:27:36.663Z,100567.09
2022-09-09T07:30:05.882Z,100577.22
2022-09-09T07:32:33.647Z,100578.84
2022-09-09T07:35:00.866Z,100573.50
2022-09-09T07:37:28.316Z,100582.34
2022-09-09T07:39:55.015Z,100583.47
2022-09-09T07:42:21.494Z,100576.78
2022-09-09T07:44:48.397Z,100572.50
2022-09-09T07:47:16.604Z,100578.16
2022-09-09T07:49:47.213Z,100573.72
2022-09-09T07:52:19.662Z,100578.66
2022-09-09T07:54:49.440Z,100577.22
2022-09-09T07:57:19.592Z,100575.72
2022-09-09T07:59:47.527Z,100579.66
2022-09-09T08:02:14.002Z,100582.34
2022-09-09T08:04:42.168Z,100582.69
2022-09-09T08:07:09.018Z,100591.66
2022-09-09T08:09:42.921Z,100592.84
2022-09-09T08:12:23.686Z,100586.25
2022-09-09T08:14:52.570Z,100594.00
2022-09-09T08:17:19.930Z,100588.28
2022-09-09T08:19:46.975Z,100592.44
2022-09-09T08:22:18.338Z,100594.91
2022-09-09T08:24:45.046Z,100600.13
2022-09-09T08:27:13.411Z,100599.28
2022-09-09T08:29:40.369Z,100602.84
2022-09-09T08:32:07.379Z,100604.53
2022-09-09T08:34:35.416Z,100599.66
2022-09-09T08:37:06.692Z,100606.34
2022-09-09T08:39:37.968Z,100600.69
2022-09-09T08:42:26.782Z,100603.88
2022-09-09T08:45:25.602Z,100604.94
2022-09-09T08:48:06.262Z,100610.41
2022-09-09T08:50:41.766Z,100599.66
2022-09-09T08:53:39.043Z,100602.84
2022-09-09T08:56:13.746Z,100607.28
2022-09-09T08:58:58.203Z,100611.06
2022-09-09T09:02:03.590Z,100606.81
2022-09-09T09:05:07.790Z,100609.75
2022-09-09T09:07:48.998Z,100610.59
2022-09-09T09:10:42.298Z,100623.44
2022-09-09T09:13:49.349Z,100610.41
2022-09-09T09:16:25.786Z,100622.00
2022-09-09T09:18:55.363Z,100606.91
2022-09-09T09:21:33.938Z,100612.84
2022-09-09T09:24:11.537Z,100617.28
2022-09-09T09:26:38.571Z,100614.72
2022-09-09T09:29:17.335Z,100620.19
2022-09-09T09:31:57.686Z,100619.53
2022-09-09T09:34:26.254Z,100616.34
2022-09-09T09:36:59.621Z,100615.88
2022-09-09T09:42:21.786Z,100626.56
2022-09-09T09:44:53.177Z,100625.91
2022-09-09T09:47:24.386Z,100614.56
2022-09-09T09:50:19.989Z,100610.78
2022-09-09T09:52:56.681Z,100610.78
2022-09-09T09:55:25.134Z,100609.75
2022-09-09T09:57:52.796Z,100616.25
2022-09-09T10:00:22.849Z,100630.59
2022-09-09T10:02:58.078Z,100622.00
2022-09-09T10:05:35.991Z,100620.97
2022-09-09T10:08:20.079Z,100620.97
2022-09-09T10:11:21.025Z,100616.16
2022-09-09T10:14:23.170Z,100612.38
2022-09-09T10:17:02.514Z,100613.41
2022-09-09T10:19:36.388Z,100618.22
2022-09-09T10:22:12.134Z,100617.56
2022-09-09T10:25:10.725Z,100614.00
2022-09-09T10:28:16.545Z,100615.09
2022-09-09T10:31:00.626Z,100620.66
2022-09-09T10:34:13.017Z,100618.38
2022-09-09T10:36:47.666Z,100623.84
2022-09-09T10:39:33.482Z,100618.38
2022-09-09T10:42:08.989Z,100622.34
2022-09-09T10:44:45.732Z,100623.59
2022-09-09T10:47:18.189Z,100620.78
2022-09-09T10:49:59.981Z,100633.16
2022-09-09T10:52:49.753Z,100631.44
2022-09-09T10:55:19.557Z,100631.44
2022-09-09T10:57:54.839Z,100637.50
2022-09-09T11:00:24.915Z,100634.69
2022-09-09T11:03:03.050Z,100643.16
2022-09-09T11:05:42.454Z,100634.19
2022-09-09T11:08:19.507Z,100633.81
2022-09-09T11:11:04.530Z,100640.38
2022-09-09T11:13:38.265Z,100646.97
2022-09-09T11:16:21.736Z,100653.38
2022-09-09T11:18:48.501Z,100651.41
2022-09-09T11:21:32.535Z,100650.06
2022-09-09T11:24:14.201Z,100657.81
2022-09-09T11:26:50.543Z,100661.19
2022-09-09T11:29:45.706Z,100643.75
2022-09-09T11:32:30.286Z,100646.97
2022-09-09T11:35:21.851Z,100646.78
2022-09-09T11:38:29.468Z,100643.69
2022-09-09T11:41:05.349Z,100637.66
2022-09-09T11:43:43.475Z,100638.13
2022-09-09T11:46:11.531Z,100639.63
2022-09-09T11:48:46.855Z,100636.16
2022-09-09T11:51:22.395Z,100628.34
2022-09-09T11:54:03.879Z,100631.75
2022-09-09T11:56:33.081Z,100623.94
2022-09-09T11:59:05.285Z,100629.19
2022-09-09T12:01:43.971Z,100628.56
2022-09-09T12:04:30.114Z,100628.16
2022-09-09T12:07:28.038Z,100620.66
2022-09-09T12:10:03.189Z,100624.72
2022-09-09T12:12:34.313Z,100632.91
2022-09-09T12:15:18.490Z,100629.72
2022-09-09T12:17:47.616Z,100633.44
2022-09-09T12:20:38.303Z,100627.03
2022-09-09T12:23:07.458Z,100623.09
2022-09-09T12:25:46.036Z,100632.91
2022-09-09T12:28:17.545Z,100628.69
2022-09-09T12:31:08.892Z,100624.06
2022-09-09T12:33:46.265Z,100622.56
2022-09-09T12:36:20.314Z,100615.56
2022-09-09T12:38:47.502Z,100611.59
2022-09-09T12:41:25.823Z,100614.41
2022-09-09T12:44:07.073Z,100616.56
2022-09-09T12:46:43.203Z,100614.59
2022-09-09T12:49:28.401Z,100613.03
2022-09-09T12:51:56.330Z,100615.28
2022-09-09T12:54:26.017Z,100608.81
2022-09-09T12:56:52.642Z,100610.97
2022-09-09T12:59:35.690Z,100599.22
2022-09-09T13:02:02.395Z,100610.44
2022-09-09T13:04:33.026Z,100596.94
2022-09-09T13:07:10.971Z,100594.19
2022-09-09T13:09:37.714Z,100594.84
2022-09-09T13:12:08.180Z,100585.78
2022-09-09T13:14:40.586Z,100597.38
2022-09-09T13:17:18.229Z,100594.44
2022-09-09T13:19:46.431Z,100597.19
2022-09-09T13:22:15.092Z,100580.94
2022-09-09T13:24:43.454Z,100591.47
2022-09-09T13:27:27.674Z,100578.34
2022-09-09T13:29:58.281Z,100584.63
2022-09-09T13:32:27.879Z,100587.31
2022-09-09T13:35:04.735Z,100574.56
2022-09-09T13:37:49.088Z,100582.31
2022-09-09T13:40:22.579Z,100572.59
2022-09-09T13:42:56.039Z,100568.56
2022-09-09T13:45:27.727Z,100554.81
2022-09-09T13:47:56.351Z,100533.84
2022-09-09T13:50:26.989Z,100536.72
2022-09-09T13:52:55.659Z,100567.41
2022-09-09T13:55:24.996Z,100585.06
2022-09-09T13:57:58.394Z,100581.22
2022-09-09T14:00:25.480Z,100581.16
2022-09-09T14:02:52.255Z,100577.50
2022-09-09T14:05:24.244Z,100574.47
2022-09-09T14:07:53.166Z,100574.09
2022-09-09T14:10:20.139Z,100566.16
2022-09-09T14:12:47.603Z,100569.16
2022-09-09T14:15:15.440Z,100572.63
2022-09-09T14:17:42.163Z,100566.19
2022-09-09T14:20:10.165Z,100568.59
2022-09-09T14:22:37.390Z,100576.13
2022-09-09T14:25:09.139Z,100568.44
2022-09-09T14:27:35.625Z,100572.75
2022-09-09T14:30:02.376Z,100574.25
2022-09-09T14:32:28.932Z,100574.72
2022-09-09T14:35:00.301Z,100568.00
2022-09-09T14:37:28.450Z,100573.91
2022-09-09T14:39:55.004Z,100557.72
2022-09-09T14:42:22.377Z,100564.75
2022-09-09T14:44:52.138Z,100560.81
2022-09-09T14:47:18.626Z,100571.25
2022-09-09T14:49:47.285Z,100566.28
2022-09-09T14:52:14.046Z,100569.13
2022-09-09T14:54:44.614Z,100564.56
2022-09-09T14:57:11.186Z,100560.00
2022-09-09T14:59:37.670Z,100551.19
2022-09-09T15:02:05.159Z,100560.75
2022-09-09T15:04:34.885Z,100551.25
2022-09-09T15:07:01.362Z,100554.03
2022-09-09T15:09:27.858Z,100561.84
2022-09-09T15:11:54.363Z,100556.34
2022-09-09T15:14:27.061Z,100551.28
2022-09-09T15:16:53.537Z,100555.06
2022-09-09T15:19:19.991Z,100546.22
2022-09-09T15:21:46.442Z,100547.66
2022-09-09T15:24:17.960Z,100547.63
2022-09-09T15:26:44.582Z,100548.44
2022-09-09T15:29:11.077Z,100550.94
2022-09-09T15:31:37.596Z,100549.03
2022-09-09T15:34:09.002Z,100544.78
2022-09-09T15:36:40.509Z,100552.38
2022-09-09T15:39:10.619Z,100558.06
2022-09-09T15:41:37.131Z,100551.94
2022-09-09T15:44:08.427Z,100549.16
2022-09-09T15:46:38.532Z,100538.34
2022-09-09T15:49:19.171Z,100535.53
2022-09-09T15:51:47.757Z,100585.72
2022-09-09T15:54:20.708Z,100601.91
2022-09-09T15:56:51.150Z,100628.56
2022-09-09T15:59:17.598Z,100611.69
2022-09-09T16:01:44.949Z,100608.22
2022-09-09T16:04:21.190Z,100619.63
2022-09-09T16:06:47.900Z,100617.78
2022-09-09T16:09:14.363Z,100604.88
2022-09-09T16:11:42.873Z,100605.03
2022-09-09T16:14:12.002Z,100603.63
2022-09-09T16:16:38.567Z,100590.88
2022-09-09T16:19:10.788Z,100591.81
2022-09-09T16:21:45.510Z,100594.47
2022-09-09T16:24:16.327Z,100599.16
2022-09-09T16:26:46.206Z,100601.56
2022-09-09T16:29:14.129Z,100602.78
2022-09-09T16:31:41.492Z,100606.56
2022-09-09T16:34:10.630Z,100612.22
2022-09-09T16:36:39.983Z,100620.97
2022-09-09T16:39:10.178Z,100609.56
2022-09-09T16:41:37.944Z,100618.13
2022-09-09T16:44:11.247Z,100617.28
2022-09-09T16:46:41.572Z,100614.34
2022-09-09T16:49:10.474Z,100622.00
2022-09-09T16:51:39.965Z,100632.56
2022-09-09T16:54:11.008Z,100640.56
2022-09-09T16:56:42.265Z,100635.28
2022-09-09T16:59:12.145Z,100636.50
2022-09-09T17:01:41.641Z,100628.69
2022-09-09T17:04:17.140Z,100640.16
2022-09-09T17:06:46.397Z,100640.16
2022-09-09T17:09:13.989Z,100636.22
2022-09-09T17:11:41.045Z,100639.13
2022-09-09T17:14:12.188Z,100638.47
2022-09-09T17:16:40.453Z,100649.38
2022-09-09T17:19:09.213Z,100642.41
2022-09-09T17:21:42.757Z,100646.19
2022-09-09T17:24:16.850Z,100642.44
2022-09-09T17:26:43.955Z,100644.03
2022-09-09T17:29:12.199Z,100635.34
2022-09-09T17:31:39.028Z,100633.84
2022-09-09T17:34:06.041Z,100635.03
2022-09-09T17:36:34.553Z,100631.47
2022-09-09T17:39:02.485Z,100635.91
2022-09-09T17:41:31.978Z,100637.78
2022-09-09T17:44:00.491Z,100637.28
2022-09-09T17:46:30.550Z,100652.16
2022-09-09T17:49:00.591Z,100654.72
2022-09-09T17:51:31.078Z,100654.53
2022-09-09T17:54:02.192Z,100654.34
2022-09-09T17:56:32.278Z,100658.78
2022-09-09T17:59:00.398Z,100661.31
2022-09-09T18:01:31.242Z,100658.59
2022-09-09T18:04:03.667Z,100669.34
2022-09-09T18:06:36.246Z,100673.28
2022-09-09T18:09:05.613Z,100685.03
2022-09-09T18:11:36.438Z,100675.50
2022-09-09T18:14:06.012Z,100679.47
2022-09-09T18:16:36.110Z,100682.00
2022-09-09T18:19:05.460Z,100686.63
2022-09-09T18:21:33.901Z,100686.97
2022-09-09T18:24:04.565Z,100686.97
2022-09-09T18:26:33.628Z,100686.13
2022-09-09T18:29:09.615Z,100681.03
2022-09-09T18:31:39.570Z,100695.72
2022-09-09T18:34:13.191Z,100696.06
2022-09-09T18:36:41.282Z,100704.44
2022-09-09T18:39:08.840Z,100711.09
2022-09-09T18:41:37.943Z,100714.03
2022-09-09T18:44:11.142Z,100724.09
2022-09-09T18:46:39.890Z,100728.69
2022-09-09T18:49:06.881Z,100726.31
2022-09-09T18:51:36.899Z,100717.78
2022-09-09T18:54:10.649Z,100722.56
2022-09-09T18:56:37.258Z,100722.06
2022-09-09T18:59:06.559Z,100715.09
2022-09-09T19:01:35.652Z,100723.47
2022-09-09T19:04:04.101Z,100732.84
2022-09-09T19:06:32.610Z,100729.44
2022-09-09T19:09:03.222Z,100729.81
2022-09-09T19:11:31.108Z,100728.94
2022-09-09T19:14:01.995Z,100732.53
2022-09-09T19:16:31.247Z,100729.31
2022-09-09T19:19:02.102Z,100735.97
2022-09-09T19:21:35.617Z,100733.41
2022-09-09T19:24:06.443Z,100729.16
2022-09-09T19:26:40.435Z,100732.25
2022-09-09T19:29:10.123Z,100742.84
2022-09-09T19:31:37.773Z,100742.13
2022-09-09T19:34:09.622Z,100754.06
2022-09-09T19:36:36.110Z,100742.47
2022-09-09T19:39:03.921Z,100748.09
2022-09-09T19:41:34.261Z,100755.44
2022-09-09T19:44:06.034Z,100756.09
2022-09-09T19:46:37.439Z,100759.50
2022-09-09T19:49:05.455Z,100767.22
2022-09-09T19:51:33.742Z,100771.47
2022-09-09T19:54:10.692Z,100772.13
2022-09-09T19:56:39.047Z,100767.53
2022-09-09T19:59:09.742Z,100766.34
2022-09-09T20:01:42.246Z,100772.13
2022-09-09T20:04:09.109Z,100769.22
2022-09-09T20:06:38.981Z,100773.47
2022-09-09T20:09:07.404Z,100779.09
2022-09-09T20:11:34.684Z,100780.13
2022-09-09T20:14:06.568Z,100774.50
2022-09-09T20:16:33.744Z,100788.63
2022-09-09T20:19:03.631Z,100785.72
2022-09-09T20:21:36.018Z,100785.72
2022-09-09T20:24:10.929Z,100783.19
2022-09-09T20:26:37.859Z,100785.22
2022-09-09T20:29:09.882Z,100783.34
2022-09-09T20:31:40.562Z,100782.84
2022-09-09T20:34:14.451Z,100784.06
2022-09-09T20:36:41.734Z,100785.06
2022-09-09T20:39:18.078Z,100781.50
2022-09-09T20:41:46.245Z,100784.75
2022-09-09T20:44:18.790Z,100784.44
2022-09-09T20:46:55.397Z,100779.63
2022-09-09T20:49:25.637Z,100781.00
2022-09-09T20:51:53.478Z,100785.28
2022-09-09T20:54:23.880Z,100784.94
2022-09-09T20:56:52.619Z,100787.84
2022-09-09T20:59:23.962Z,100784.28
2022-09-09T21:01:51.424Z,100783.25
2022-09-09T21:04:20.384Z,100780.69
2022-09-09T21:06:49.112Z,100780.88
2022-09-09T21:09:16.094Z,100779.84
2022-09-09T21:11:42.525Z,100781.38
2022-09-09T21:14:10.536Z,100785.44
2022-09-09T21:16:37.190Z,100787.66
2022-09-09T21:19:04.431Z,100788.50
2022-09-09T21:21:31.109Z,100793.13
2022-09-09T21:24:00.770Z,100790.91
2022-09-09T21:26:27.792Z,100789.22
2022-09-09T21:28:55.858Z,100792.97
2022-09-09T21:31:27.724Z,100792.97
2022-09-09T21:46:07.640Z,100785.13
2022-09-09T21:48:35.246Z,100782.91
2022-09-09T21:51:06.549Z,100782.59
2022-09-09T21:53:36.622Z,100778.31
2022-09-09T21:56:07.139Z,100777.31
2022-09-09T21:58:35.486Z,100783.44
2022-09-09T22:01:02.270Z,100785.63
2022-09-09T22:03:33.383Z,100787.16
2022-09-09T22:06:00.134Z,100789.22
2022-09-09T22:08:26.624Z,100784.28
2022-09-09T22:10:53.090Z,100787.00
2022-09-09T22:13:47.182Z,100778.66
2022-09-09T22:16:17.016Z,100777.28
2022-09-09T22:18:44.215Z,100780.00
2022-09-09T22:21:15.882Z,100782.41
2022-09-09T22:23:46.740Z,100782.75
2022-09-09T22:26:13.267Z,100783.78
2022-09-09T22:28:39.812Z,100784.09
2022-09-09T22:31:06.582Z,100779.31
2022-09-09T22:33:35.291Z,100786.13
2022-09-09T22:36:01.891Z,100786.31
2022-09-09T22:38:28.352Z,100789.22
2022-09-09T22:40:54.892Z,100782.91
2022-09-09T22:43:25.639Z,100788.53
2022-09-09T22:45:52.148Z,100787.00
2022-09-09T22:48:18.737Z,100792.78
2022-09-09T22:50:46.609Z,100791.75
2022-09-09T22:53:14.970Z,100785.28
2022-09-09T22:55:41.590Z,100795.34
2022-09-09T22:58:08.358Z,100797.91
2022-09-09T23:00:35.140Z,100787.69
2022-09-09T23:03:01.725Z,100795.69
2022-09-09T23:05:28.303Z,100793.81
2022-09-09T23:07:58.190Z,100795.00
2022-09-09T23:10:25.210Z,100789.88
2022-09-09T23:12:51.691Z,100793.81
2022-09-09T23:15:23.024Z,100798.75
2022-09-09T23:17:52.041Z,100801.66
2022-09-09T23:20:19.497Z,100798.41
2022-09-09T23:22:45.961Z,100801.13
2022-09-09T23:25:15.615Z,100799.44
2022-09-09T23:27:42.137Z,100800.44
2022-09-09T23:30:09.881Z,100804.19
2022-09-09T23:32:37.124Z,100808.09
2022-09-09T23:35:05.026Z,100810.16
2022-09-09T23:37:31.820Z,100808.44
2022-09-09T23:39:58.285Z,100819.69
2022-09-09T23:42:25.794Z,100817.28
2022-09-09T23:44:53.889Z,100817.47
2022-09-09T23:47:20.469Z,100817.97
2022-09-09T23:49:50.744Z,100823.25
2022-09-09T23:52:17.710Z,100819.84
2022-09-09T23:54:49.801Z,100817.28
2022-09-09T23:57:16.267Z,100820.03
2022-09-09T23:59:42.736Z,100818.16
